sensor_id;sensor_type;location;lat;lon;timestamp;P1;durP1;ratioP1;P2;durP2;ratioP2
71734;SDS011;59577;52.122;5.406;2024-01-07T00:02:09;10.23;;;6.07;;
71734;SDS011;59577;52.122;5.406;2024-01-07T00:04:36;10.15;;;6.03;;
71734;SDS011;59577;52.122;5.406;2024-01-07T00:07:04;12.07;;;6.22;;
71734;SDS011;59577;52.122;5.406;2024-01-07T00:09:30;9.63;;;6.40;;
71734;SDS011;59577;52.122;5.406;2024-01-07T00:11:57;10.88;;;5.70;;
71734;SDS011;59577;52.122;5.406;2024-01-07T00:14:23;10.03;;;5.90;;
71734;SDS011;59577;52.122;5.406;2024-01-07T00:16:50;10.82;;;5.80;;
71734;SDS011;59577;52.122;5.406;2024-01-07T00:19:17;9.25;;;5.63;;
71734;SDS011;59577;52.122;5.406;2024-01-07T00:21:44;12.45;;;5.68;;
71734;SDS011;59577;52.122;5.406;2024-01-07T00:24:10;10.88;;;5.68;;
71734;SDS011;59577;52.122;5.406;2024-01-07T00:26:37;5.30;;;4.40;;
71734;SDS011;59577;52.122;5.406;2024-01-07T00:29:03;7.97;;;5.15;;
71734;SDS011;59577;52.122;5.406;2024-01-07T00:31:29;8.38;;;5.10;;
71734;SDS011;59577;52.122;5.406;2024-01-07T00:33:56;9.88;;;5.38;;
71734;SDS011;59577;52.122;5.406;2024-01-07T00:36:23;10.50;;;5.70;;
71734;SDS011;59577;52.122;5.406;2024-01-07T00:38:49;9.20;;;5.30;;
71734;SDS011;59577;52.122;5.406;2024-01-07T00:41:16;8.77;;;5.15;;
71734;SDS011;59577;52.122;5.406;2024-01-07T00:43:43;8.82;;;5.10;;
71734;SDS011;59577;52.122;5.406;2024-01-07T00:46:09;8.32;;;4.88;;
71734;SDS011;59577;52.122;5.406;2024-01-07T00:48:36;9.38;;;5.35;;
71734;SDS011;59577;52.122;5.406;2024-01-07T00:51:03;7.87;;;4.80;;
71734;SDS011;59577;52.122;5.406;2024-01-07T00:53:30;8.32;;;5.32;;
71734;SDS011;59577;52.122;5.406;2024-01-07T00:55:56;10.40;;;5.40;;
71734;SDS011;59577;52.122;5.406;2024-01-07T00:58:23;5.95;;;4.82;;
71734;SDS011;59577;52.122;5.406;2024-01-07T01:00:50;7.57;;;5.15;;
71734;SDS011;59577;52.122;5.406;2024-01-07T01:03:20;8.87;;;5.50;;
71734;SDS011;59577;52.122;5.406;2024-01-07T01:05:46;7.90;;;4.85;;
71734;SDS011;59577;52.122;5.406;2024-01-07T01:08:13;8.45;;;4.85;;
71734;SDS011;59577;52.122;5.406;2024-01-07T01:10:39;9.75;;;5.88;;
71734;SDS011;59577;52.122;5.406;2024-01-07T01:13:06;9.75;;;5.57;;
71734;SDS011;59577;52.122;5.406;2024-01-07T01:15:33;9.87;;;5.80;;
71734;SDS011;59577;52.122;5.406;2024-01-07T01:17:59;7.78;;;4.72;;
71734;SDS011;59577;52.122;5.406;2024-01-07T01:20:26;9.30;;;5.43;;
71734;SDS011;59577;52.122;5.406;2024-01-07T01:22:52;12.20;;;6.20;;
71734;SDS011;59577;52.122;5.406;2024-01-07T01:25:19;9.10;;;5.10;;
71734;SDS011;59577;52.122;5.406;2024-01-07T01:27:46;8.30;;;4.97;;
71734;SDS011;59577;52.122;5.406;2024-01-07T01:30:12;7.90;;;5.60;;
71734;SDS011;59577;52.122;5.406;2024-01-07T01:32:39;10.27;;;5.75;;
71734;SDS011;59577;52.122;5.406;2024-01-07T01:35:06;9.85;;;5.68;;
71734;SDS011;59577;52.122;5.406;2024-01-07T01:37:33;11.13;;;6.38;;
71734;SDS011;59577;52.122;5.406;2024-01-07T01:40:00;9.83;;;5.83;;
71734;SDS011;59577;52.122;5.406;2024-01-07T01:42:26;9.40;;;4.90;;
71734;SDS011;59577;52.122;5.406;2024-01-07T01:44:53;11.52;;;5.93;;
71734;SDS011;59577;52.122;5.406;2024-01-07T01:47:23;13.05;;;6.45;;
71734;SDS011;59577;52.122;5.406;2024-01-07T01:49:50;8.85;;;5.60;;
71734;SDS011;59577;52.122;5.406;2024-01-07T01:52:16;13.27;;;7.23;;
71734;SDS011;59577;52.122;5.406;2024-01-07T01:54:43;12.32;;;6.90;;
71734;SDS011;59577;52.122;5.406;2024-01-07T01:57:13;11.63;;;6.38;;
71734;SDS011;59577;52.122;5.406;2024-01-07T01:59:45;11.20;;;5.95;;
71734;SDS011;59577;52.122;5.406;2024-01-07T02:02:11;12.82;;;6.90;;
71734;SDS011;59577;52.122;5.406;2024-01-07T02:04:39;13.83;;;6.97;;
71734;SDS011;59577;52.122;5.406;2024-01-07T02:07:06;11.18;;;6.30;;
71734;SDS011;59577;52.122;5.406;2024-01-07T02:09:33;13.50;;;7.13;;
71734;SDS011;59577;52.122;5.406;2024-01-07T02:12:08;11.48;;;6.47;;
71734;SDS011;59577;52.122;5.406;2024-01-07T02:14:38;11.52;;;5.93;;
71734;SDS011;59577;52.122;5.406;2024-01-07T02:17:05;15.40;;;6.80;;
71734;SDS011;59577;52.122;5.406;2024-01-07T02:19:32;14.55;;;7.53;;
71734;SDS011;59577;52.122;5.406;2024-01-07T02:21:59;13.07;;;6.95;;
71734;SDS011;59577;52.122;5.406;2024-01-07T02:24:26;16.08;;;7.30;;
71734;SDS011;59577;52.122;5.406;2024-01-07T02:26:52;10.73;;;5.60;;
71734;SDS011;59577;52.122;5.406;2024-01-07T02:29:19;12.53;;;6.63;;
71734;SDS011;59577;52.122;5.406;2024-01-07T02:31:45;14.18;;;7.45;;
71734;SDS011;59577;52.122;5.406;2024-01-07T02:34:12;16.80;;;7.03;;
71734;SDS011;59577;52.122;5.406;2024-01-07T02:36:38;12.63;;;6.90;;
71734;SDS011;59577;52.122;5.406;2024-01-07T02:39:05;15.02;;;7.55;;
71734;SDS011;59577;52.122;5.406;2024-01-07T02:41:31;16.03;;;6.97;;
71734;SDS011;59577;52.122;5.406;2024-01-07T02:43:58;13.05;;;7.20;;
71734;SDS011;59577;52.122;5.406;2024-01-07T02:46:24;15.98;;;7.10;;
71734;SDS011;59577;52.122;5.406;2024-01-07T02:48:51;16.70;;;7.35;;
71734;SDS011;59577;52.122;5.406;2024-01-07T02:51:17;13.85;;;7.90;;
71734;SDS011;59577;52.122;5.406;2024-01-07T02:53:44;15.07;;;7.50;;
71734;SDS011;59577;52.122;5.406;2024-01-07T02:56:10;11.20;;;6.68;;
71734;SDS011;59577;52.122;5.406;2024-01-07T02:58:37;16.83;;;7.93;;
71734;SDS011;59577;52.122;5.406;2024-01-07T03:01:05;17.25;;;7.70;;
71734;SDS011;59577;52.122;5.406;2024-01-07T03:03:36;14.05;;;7.70;;
71734;SDS011;59577;52.122;5.406;2024-01-07T03:06:03;13.73;;;6.87;;
71734;SDS011;59577;52.122;5.406;2024-01-07T03:08:30;14.57;;;7.15;;
71734;SDS011;59577;52.122;5.406;2024-01-07T03:10:57;11.20;;;6.35;;
71734;SDS011;59577;52.122;5.406;2024-01-07T03:13:24;12.50;;;6.88;;
71734;SDS011;59577;52.122;5.406;2024-01-07T03:15:51;10.67;;;6.60;;
71734;SDS011;59577;52.122;5.406;2024-01-07T03:18:17;12.82;;;7.10;;
71734;SDS011;59577;52.122;5.406;2024-01-07T03:20:44;12.50;;;6.22;;
71734;SDS011;59577;52.122;5.406;2024-01-07T03:23:11;12.98;;;7.32;;
71734;SDS011;59577;52.122;5.406;2024-01-07T03:25:37;17.00;;;8.20;;
71734;SDS011;59577;52.122;5.406;2024-01-07T03:28:04;15.03;;;7.33;;
71734;SDS011;59577;52.122;5.406;2024-01-07T03:30:31;12.57;;;7.25;;
71734;SDS011;59577;52.122;5.406;2024-01-07T03:32:57;16.45;;;8.00;;
71734;SDS011;59577;52.122;5.406;2024-01-07T03:35:24;11.13;;;6.72;;
71734;SDS011;59577;52.122;5.406;2024-01-07T03:37:50;14.13;;;7.55;;
71734;SDS011;59577;52.122;5.406;2024-01-07T03:40:17;13.30;;;6.53;;
71734;SDS011;59577;52.122;5.406;2024-01-07T03:42:43;13.60;;;7.40;;
71734;SDS011;59577;52.122;5.406;2024-01-07T03:45:10;12.77;;;7.07;;
71734;SDS011;59577;52.122;5.406;2024-01-07T03:47:36;14.27;;;7.10;;
71734;SDS011;59577;52.122;5.406;2024-01-07T03:50:03;13.70;;;7.07;;
71734;SDS011;59577;52.122;5.406;2024-01-07T03:52:30;14.20;;;7.00;;
71734;SDS011;59577;52.122;5.406;2024-01-07T03:54:57;14.20;;;7.93;;
71734;SDS011;59577;52.122;5.406;2024-01-07T03:57:23;13.77;;;8.38;;
71734;SDS011;59577;52.122;5.406;2024-01-07T03:59:50;14.85;;;7.85;;
71734;SDS011;59577;52.122;5.406;2024-01-07T04:02:17;16.98;;;7.53;;
71734;SDS011;59577;52.122;5.406;2024-01-07T04:04:43;14.57;;;7.53;;
71734;SDS011;59577;52.122;5.406;2024-01-07T04:07:10;14.00;;;7.00;;
71734;SDS011;59577;52.122;5.406;2024-01-07T04:09:36;15.57;;;6.78;;
71734;SDS011;59577;52.122;5.406;2024-01-07T04:12:03;14.77;;;7.78;;
71734;SDS011;59577;52.122;5.406;2024-01-07T04:14:30;11.50;;;7.50;;
71734;SDS011;59577;52.122;5.406;2024-01-07T04:17:00;15.97;;;8.40;;
71734;SDS011;59577;52.122;5.406;2024-01-07T04:19:26;13.27;;;7.47;;
71734;SDS011;59577;52.122;5.406;2024-01-07T04:21:53;17.02;;;8.48;;
71734;SDS011;59577;52.122;5.406;2024-01-07T04:24:19;15.45;;;8.48;;
71734;SDS011;59577;52.122;5.406;2024-01-07T04:26:46;11.57;;;6.78;;
71734;SDS011;59577;52.122;5.406;2024-01-07T04:29:12;16.60;;;7.87;;
71734;SDS011;59577;52.122;5.406;2024-01-07T04:31:39;16.00;;;6.85;;
71734;SDS011;59577;52.122;5.406;2024-01-07T04:34:05;14.88;;;7.03;;
71734;SDS011;59577;52.122;5.406;2024-01-07T04:36:32;15.80;;;7.85;;
71734;SDS011;59577;52.122;5.406;2024-01-07T04:38:59;14.40;;;8.02;;
71734;SDS011;59577;52.122;5.406;2024-01-07T04:41:25;14.93;;;8.13;;
71734;SDS011;59577;52.122;5.406;2024-01-07T04:43:52;13.57;;;7.15;;
71734;SDS011;59577;52.122;5.406;2024-01-07T04:46:18;11.75;;;7.20;;
71734;SDS011;59577;52.122;5.406;2024-01-07T04:48:45;12.20;;;6.80;;
71734;SDS011;59577;52.122;5.406;2024-01-07T04:51:11;13.00;;;7.07;;
71734;SDS011;59577;52.122;5.406;2024-01-07T04:53:38;16.27;;;7.70;;
71734;SDS011;59577;52.122;5.406;2024-01-07T04:56:04;10.20;;;6.75;;
71734;SDS011;59577;52.122;5.406;2024-01-07T04:58:31;14.57;;;7.45;;
71734;SDS011;59577;52.122;5.406;2024-01-07T05:00:57;12.75;;;7.07;;
71734;SDS011;59577;52.122;5.406;2024-01-07T05:03:24;11.65;;;6.60;;
71734;SDS011;59577;52.122;5.406;2024-01-07T05:05:51;12.17;;;7.47;;
71734;SDS011;59577;52.122;5.406;2024-01-07T05:08:18;10.60;;;6.78;;
71734;SDS011;59577;52.122;5.406;2024-01-07T05:10:44;16.98;;;6.85;;
71734;SDS011;59577;52.122;5.406;2024-01-07T05:13:11;9.77;;;6.43;;
71734;SDS011;59577;52.122;5.406;2024-01-07T05:15:38;14.32;;;6.60;;
71734;SDS011;59577;52.122;5.406;2024-01-07T05:18:07;13.20;;;6.13;;
71734;SDS011;59577;52.122;5.406;2024-01-07T05:20:34;12.55;;;5.97;;
71734;SDS011;59577;52.122;5.406;2024-01-07T05:23:01;8.82;;;5.82;;
71734;SDS011;59577;52.122;5.406;2024-01-07T05:25:27;12.30;;;6.30;;
71734;SDS011;59577;52.122;5.406;2024-01-07T05:27:54;10.32;;;6.35;;
71734;SDS011;59577;52.122;5.406;2024-01-07T05:30:21;11.23;;;6.20;;
71734;SDS011;59577;52.122;5.406;2024-01-07T05:32:48;9.73;;;5.50;;
71734;SDS011;59577;52.122;5.406;2024-01-07T05:35:15;11.98;;;5.85;;
71734;SDS011;59577;52.122;5.406;2024-01-07T05:37:41;12.85;;;6.63;;
71734;SDS011;59577;52.122;5.406;2024-01-07T05:40:08;10.02;;;5.45;;
71734;SDS011;59577;52.122;5.406;2024-01-07T05:42:35;12.90;;;5.33;;
71734;SDS011;59577;52.122;5.406;2024-01-07T05:45:02;9.25;;;4.97;;
71734;SDS011;59577;52.122;5.406;2024-01-07T05:47:29;10.18;;;5.78;;
71734;SDS011;59577;52.122;5.406;2024-01-07T05:49:56;9.50;;;5.72;;
71734;SDS011;59577;52.122;5.406;2024-01-07T05:52:23;7.95;;;5.93;;
71734;SDS011;59577;52.122;5.406;2024-01-07T05:54:50;8.50;;;5.47;;
71734;SDS011;59577;52.122;5.406;2024-01-07T05:57:16;12.38;;;5.95;;
71734;SDS011;59577;52.122;5.406;2024-01-07T05:59:43;14.55;;;7.03;;
71734;SDS011;59577;52.122;5.406;2024-01-07T06:02:10;11.98;;;5.43;;
71734;SDS011;59577;52.122;5.406;2024-01-07T06:04:38;11.45;;;5.63;;
71734;SDS011;59577;52.122;5.406;2024-01-07T06:07:05;8.43;;;5.27;;
71734;SDS011;59577;52.122;5.406;2024-01-07T06:09:32;9.50;;;5.90;;
71734;SDS011;59577;52.122;5.406;2024-01-07T06:11:59;12.20;;;6.40;;
71734;SDS011;59577;52.122;5.406;2024-01-07T06:14:26;11.10;;;6.28;;
71734;SDS011;59577;52.122;5.406;2024-01-07T06:16:52;8.82;;;5.75;;
71734;SDS011;59577;52.122;5.406;2024-01-07T06:19:19;9.73;;;5.80;;
71734;SDS011;59577;52.122;5.406;2024-01-07T06:21:46;9.15;;;5.25;;
71734;SDS011;59577;52.122;5.406;2024-01-07T06:24:12;9.20;;;5.53;;
71734;SDS011;59577;52.122;5.406;2024-01-07T06:26:39;11.02;;;5.40;;
71734;SDS011;59577;52.122;5.406;2024-01-07T06:29:07;8.43;;;5.18;;
71734;SDS011;59577;52.122;5.406;2024-01-07T06:31:36;11.03;;;6.47;;
71734;SDS011;59577;52.122;5.406;2024-01-07T06:34:03;11.65;;;6.35;;
71734;SDS011;59577;52.122;5.406;2024-01-07T06:36:30;9.68;;;4.93;;
71734;SDS011;59577;52.122;5.406;2024-01-07T06:38:56;8.65;;;5.22;;
71734;SDS011;59577;52.122;5.406;2024-01-07T06:41:23;7.10;;;5.30;;
71734;SDS011;59577;52.122;5.406;2024-01-07T06:43:49;9.87;;;6.07;;
71734;SDS011;59577;52.122;5.406;2024-01-07T06:46:18;7.25;;;4.68;;
71734;SDS011;59577;52.122;5.406;2024-01-07T06:48:45;7.88;;;4.95;;
71734;SDS011;59577;52.122;5.406;2024-01-07T06:51:15;6.70;;;4.22;;
71734;SDS011;59577;52.122;5.406;2024-01-07T06:53:42;10.50;;;5.82;;
71734;SDS011;59577;52.122;5.406;2024-01-07T06:56:08;12.70;;;5.70;;
71734;SDS011;59577;52.122;5.406;2024-01-07T06:58:35;9.00;;;5.40;;
71734;SDS011;59577;52.122;5.406;2024-01-07T07:01:02;8.32;;;5.90;;
71734;SDS011;59577;52.122;5.406;2024-01-07T07:03:29;9.38;;;5.95;;
71734;SDS011;59577;52.122;5.406;2024-01-07T07:05:55;9.13;;;5.47;;
71734;SDS011;59577;52.122;5.406;2024-01-07T07:08:22;6.67;;;4.67;;
71734;SDS011;59577;52.122;5.406;2024-01-07T07:10:48;9.88;;;6.28;;
71734;SDS011;59577;52.122;5.406;2024-01-07T07:13:15;9.35;;;5.93;;
71734;SDS011;59577;52.122;5.406;2024-01-07T07:15:42;9.18;;;5.45;;
71734;SDS011;59577;52.122;5.406;2024-01-07T07:18:08;10.52;;;6.53;;
71734;SDS011;59577;52.122;5.406;2024-01-07T07:20:35;9.43;;;5.93;;
71734;SDS011;59577;52.122;5.406;2024-01-07T07:23:02;11.25;;;6.22;;
71734;SDS011;59577;52.122;5.406;2024-01-07T07:25:28;9.30;;;5.68;;
71734;SDS011;59577;52.122;5.406;2024-01-07T07:27:55;12.07;;;5.60;;
71734;SDS011;59577;52.122;5.406;2024-01-07T07:30:22;8.18;;;6.07;;
71734;SDS011;59577;52.122;5.406;2024-01-07T07:32:49;13.37;;;6.20;;
71734;SDS011;59577;52.122;5.406;2024-01-07T07:35:15;10.05;;;5.85;;
71734;SDS011;59577;52.122;5.406;2024-01-07T07:37:42;12.43;;;6.43;;
71734;SDS011;59577;52.122;5.406;2024-01-07T07:40:09;10.77;;;5.85;;
71734;SDS011;59577;52.122;5.406;2024-01-07T07:42:38;10.07;;;5.80;;
71734;SDS011;59577;52.122;5.406;2024-01-07T07:45:05;10.50;;;6.50;;
71734;SDS011;59577;52.122;5.406;2024-01-07T07:47:32;10.80;;;6.03;;
71734;SDS011;59577;52.122;5.406;2024-01-07T07:49:59;8.77;;;5.28;;
71734;SDS011;59577;52.122;5.406;2024-01-07T07:52:26;8.85;;;4.70;;
71734;SDS011;59577;52.122;5.406;2024-01-07T07:54:52;12.30;;;5.68;;
71734;SDS011;59577;52.122;5.406;2024-01-07T07:57:20;9.43;;;5.37;;
71734;SDS011;59577;52.122;5.406;2024-01-07T07:59:47;6.50;;;4.53;;
71734;SDS011;59577;52.122;5.406;2024-01-07T08:02:15;8.10;;;5.60;;
71734;SDS011;59577;52.122;5.406;2024-01-07T08:04:43;10.32;;;5.05;;
71734;SDS011;59577;52.122;5.406;2024-01-07T08:07:10;8.60;;;5.57;;
71734;SDS011;59577;52.122;5.406;2024-01-07T08:09:36;10.63;;;5.00;;
71734;SDS011;59577;52.122;5.406;2024-01-07T08:12:04;6.30;;;4.13;;
71734;SDS011;59577;52.122;5.406;2024-01-07T08:14:31;7.80;;;5.38;;
71734;SDS011;59577;52.122;5.406;2024-01-07T08:16:58;8.00;;;4.90;;
71734;SDS011;59577;52.122;5.406;2024-01-07T08:19:25;9.43;;;5.85;;
71734;SDS011;59577;52.122;5.406;2024-01-07T08:21:52;6.10;;;4.13;;
71734;SDS011;59577;52.122;5.406;2024-01-07T08:24:19;8.10;;;4.72;;
71734;SDS011;59577;52.122;5.406;2024-01-07T08:26:45;7.10;;;5.28;;
71734;SDS011;59577;52.122;5.406;2024-01-07T08:29:12;8.88;;;5.50;;
71734;SDS011;59577;52.122;5.406;2024-01-07T08:31:38;11.15;;;5.53;;
71734;SDS011;59577;52.122;5.406;2024-01-07T08:34:05;7.30;;;5.10;;
71734;SDS011;59577;52.122;5.406;2024-01-07T08:36:32;5.22;;;4.30;;
71734;SDS011;59577;52.122;5.406;2024-01-07T08:38:59;6.00;;;4.00;;
71734;SDS011;59577;52.122;5.406;2024-01-07T08:41:26;8.30;;;5.35;;
71734;SDS011;59577;52.122;5.406;2024-01-07T08:43:53;8.27;;;5.95;;
71734;SDS011;59577;52.122;5.406;2024-01-07T08:46:22;6.50;;;5.67;;
71734;SDS011;59577;52.122;5.406;2024-01-07T08:48:48;7.15;;;4.85;;
71734;SDS011;59577;52.122;5.406;2024-01-07T08:51:15;4.68;;;3.72;;
71734;SDS011;59577;52.122;5.406;2024-01-07T08:53:41;5.13;;;3.90;;
71734;SDS011;59577;52.122;5.406;2024-01-07T08:56:08;7.22;;;4.68;;
71734;SDS011;59577;52.122;5.406;2024-01-07T08:58:35;8.17;;;4.90;;
71734;SDS011;59577;52.122;5.406;2024-01-07T09:01:01;7.28;;;4.38;;
71734;SDS011;59577;52.122;5.406;2024-01-07T09:03:28;6.07;;;3.95;;
71734;SDS011;59577;52.122;5.406;2024-01-07T09:05:54;5.78;;;4.45;;
71734;SDS011;59577;52.122;5.406;2024-01-07T09:08:21;5.93;;;3.85;;
71734;SDS011;59577;52.122;5.406;2024-01-07T09:10:47;8.30;;;4.07;;
71734;SDS011;59577;52.122;5.406;2024-01-07T09:13:14;6.93;;;3.97;;
71734;SDS011;59577;52.122;5.406;2024-01-07T09:15:40;7.72;;;4.22;;
71734;SDS011;59577;52.122;5.406;2024-01-07T09:18:07;5.85;;;3.88;;
71734;SDS011;59577;52.122;5.406;2024-01-07T09:20:34;7.57;;;4.15;;
71734;SDS011;59577;52.122;5.406;2024-01-07T09:23:00;5.27;;;3.53;;
71734;SDS011;59577;52.122;5.406;2024-01-07T09:25:27;6.70;;;4.63;;
71734;SDS011;59577;52.122;5.406;2024-01-07T09:27:54;6.47;;;3.83;;
71734;SDS011;59577;52.122;5.406;2024-01-07T09:30:20;6.45;;;4.53;;
71734;SDS011;59577;52.122;5.406;2024-01-07T09:32:47;4.20;;;3.80;;
71734;SDS011;59577;52.122;5.406;2024-01-07T09:35:13;6.53;;;4.27;;
71734;SDS011;59577;52.122;5.406;2024-01-07T09:37:40;7.75;;;4.78;;
71734;SDS011;59577;52.122;5.406;2024-01-07T09:40:07;7.40;;;4.28;;
71734;SDS011;59577;52.122;5.406;2024-01-07T09:42:34;5.35;;;3.80;;
71734;SDS011;59577;52.122;5.406;2024-01-07T09:45:02;6.15;;;3.47;;
71734;SDS011;59577;52.122;5.406;2024-01-07T09:47:31;4.97;;;3.77;;
71734;SDS011;59577;52.122;5.406;2024-01-07T09:49:58;4.43;;;3.30;;
71734;SDS011;59577;52.122;5.406;2024-01-07T09:52:25;4.72;;;2.30;;
71734;SDS011;59577;52.122;5.406;2024-01-07T09:54:53;9.20;;;3.78;;
71734;SDS011;59577;52.122;5.406;2024-01-07T09:57:25;5.30;;;3.30;;
71734;SDS011;59577;52.122;5.406;2024-01-07T09:59:52;10.43;;;3.60;;
71734;SDS011;59577;52.122;5.406;2024-01-07T10:02:18;5.50;;;2.40;;
71734;SDS011;59577;52.122;5.406;2024-01-07T10:04:47;3.45;;;2.75;;
71734;SDS011;59577;52.122;5.406;2024-01-07T10:07:15;5.15;;;2.65;;
71734;SDS011;59577;52.122;5.406;2024-01-07T10:09:42;6.90;;;2.45;;
71734;SDS011;59577;52.122;5.406;2024-01-07T10:12:09;5.67;;;2.63;;
71734;SDS011;59577;52.122;5.406;2024-01-07T10:14:38;4.32;;;2.47;;
71734;SDS011;59577;52.122;5.406;2024-01-07T10:17:17;4.07;;;2.33;;
71734;SDS011;59577;52.122;5.406;2024-01-07T10:19:44;3.50;;;2.17;;
71734;SDS011;59577;52.122;5.406;2024-01-07T10:22:12;2.63;;;1.88;;
71734;SDS011;59577;52.122;5.406;2024-01-07T10:24:40;2.47;;;1.70;;
71734;SDS011;59577;52.122;5.406;2024-01-07T10:27:08;3.38;;;2.22;;
71734;SDS011;59577;52.122;5.406;2024-01-07T10:29:35;7.07;;;2.70;;
71734;SDS011;59577;52.122;5.406;2024-01-07T10:32:02;3.40;;;1.52;;
71734;SDS011;59577;52.122;5.406;2024-01-07T10:34:31;3.47;;;2.00;;
71734;SDS011;59577;52.122;5.406;2024-01-07T10:36:59;6.00;;;1.87;;
71734;SDS011;59577;52.122;5.406;2024-01-07T10:39:27;3.03;;;2.05;;
71734;SDS011;59577;52.122;5.406;2024-01-07T10:41:57;4.15;;;2.15;;
71734;SDS011;59577;52.122;5.406;2024-01-07T10:44:28;3.65;;;2.17;;
71734;SDS011;59577;52.122;5.406;2024-01-07T10:46:56;3.60;;;2.20;;
71734;SDS011;59577;52.122;5.406;2024-01-07T10:49:27;4.03;;;1.90;;
71734;SDS011;59577;52.122;5.406;2024-01-07T10:52:07;2.20;;;1.48;;
71734;SDS011;59577;52.122;5.406;2024-01-07T10:54:35;4.60;;;1.48;;
71734;SDS011;59577;52.122;5.406;2024-01-07T10:57:07;3.67;;;1.95;;
71734;SDS011;59577;52.122;5.406;2024-01-07T10:59:39;3.42;;;1.80;;
71734;SDS011;59577;52.122;5.406;2024-01-07T11:02:07;3.10;;;1.53;;
71734;SDS011;59577;52.122;5.406;2024-01-07T11:07:35;2.17;;;1.40;;
71734;SDS011;59577;52.122;5.406;2024-01-07T11:12:36;7.13;;;1.80;;
71734;SDS011;59577;52.122;5.406;2024-01-07T11:15:03;1.90;;;1.20;;
71734;SDS011;59577;52.122;5.406;2024-01-07T11:20:03;2.92;;;1.13;;
71734;SDS011;59577;52.122;5.406;2024-01-07T11:22:31;2.83;;;1.38;;
71734;SDS011;59577;52.122;5.406;2024-01-07T11:24:59;1.70;;;1.20;;
71734;SDS011;59577;52.122;5.406;2024-01-07T11:27:30;2.90;;;1.50;;
71734;SDS011;59577;52.122;5.406;2024-01-07T11:30:04;2.78;;;1.25;;
71734;SDS011;59577;52.122;5.406;2024-01-07T11:32:34;5.75;;;1.40;;
71734;SDS011;59577;52.122;5.406;2024-01-07T11:35:01;2.97;;;1.48;;
71734;SDS011;59577;52.122;5.406;2024-01-07T11:37:29;1.60;;;0.85;;
71734;SDS011;59577;52.122;5.406;2024-01-07T11:39:56;2.17;;;1.20;;
71734;SDS011;59577;52.122;5.406;2024-01-07T11:42:24;2.72;;;0.90;;
71734;SDS011;59577;52.122;5.406;2024-01-07T11:47:21;2.63;;;0.90;;
71734;SDS011;59577;52.122;5.406;2024-01-07T11:49:49;3.33;;;0.93;;
71734;SDS011;59577;52.122;5.406;2024-01-07T11:52:16;3.13;;;0.97;;
71734;SDS011;59577;52.122;5.406;2024-01-07T11:54:42;1.52;;;0.88;;
71734;SDS011;59577;52.122;5.406;2024-01-07T11:57:09;2.50;;;0.93;;
71734;SDS011;59577;52.122;5.406;2024-01-07T11:59:36;2.80;;;1.00;;
71734;SDS011;59577;52.122;5.406;2024-01-07T12:02:07;1.10;;;0.80;;
71734;SDS011;59577;52.122;5.406;2024-01-07T12:04:33;2.00;;;0.70;;
71734;SDS011;59577;52.122;5.406;2024-01-07T12:07:01;1.23;;;0.55;;
71734;SDS011;59577;52.122;5.406;2024-01-07T12:09:29;0.95;;;0.50;;
71734;SDS011;59577;52.122;5.406;2024-01-07T12:11:57;1.20;;;0.60;;
71734;SDS011;59577;52.122;5.406;2024-01-07T12:14:24;1.30;;;0.55;;
71734;SDS011;59577;52.122;5.406;2024-01-07T12:16:52;1.40;;;0.70;;
71734;SDS011;59577;52.122;5.406;2024-01-07T12:19:18;1.58;;;0.90;;
71734;SDS011;59577;52.122;5.406;2024-01-07T12:21:46;1.92;;;0.77;;
71734;SDS011;59577;52.122;5.406;2024-01-07T12:24:14;2.05;;;0.63;;
71734;SDS011;59577;52.122;5.406;2024-01-07T12:26:40;3.10;;;0.65;;
71734;SDS011;59577;52.122;5.406;2024-01-07T12:29:07;3.83;;;0.87;;
71734;SDS011;59577;52.122;5.406;2024-01-07T12:31:36;1.77;;;0.75;;
71734;SDS011;59577;52.122;5.406;2024-01-07T12:34:03;1.27;;;0.35;;
71734;SDS011;59577;52.122;5.406;2024-01-07T12:36:30;1.50;;;0.70;;
71734;SDS011;59577;52.122;5.406;2024-01-07T12:38:58;1.95;;;0.45;;
71734;SDS011;59577;52.122;5.406;2024-01-07T12:41:25;2.50;;;0.63;;
71734;SDS011;59577;52.122;5.406;2024-01-07T12:43:51;1.70;;;0.40;;
71734;SDS011;59577;52.122;5.406;2024-01-07T12:46:18;3.50;;;0.70;;
71734;SDS011;59577;52.122;5.406;2024-01-07T12:48:44;1.88;;;0.55;;
71734;SDS011;59577;52.122;5.406;2024-01-07T12:51:11;1.30;;;0.60;;
71734;SDS011;59577;52.122;5.406;2024-01-07T12:53:38;0.77;;;0.40;;
71734;SDS011;59577;52.122;5.406;2024-01-07T12:56:04;1.30;;;0.50;;
71734;SDS011;59577;52.122;5.406;2024-01-07T12:58:31;0.52;;;0.30;;
71734;SDS011;59577;52.122;5.406;2024-01-07T13:00:57;0.77;;;0.40;;
71734;SDS011;59577;52.122;5.406;2024-01-07T13:03:24;6.57;;;0.50;;
71734;SDS011;59577;52.122;5.406;2024-01-07T13:05:51;1.77;;;0.47;;
71734;SDS011;59577;52.122;5.406;2024-01-07T13:08:19;1.60;;;0.60;;
71734;SDS011;59577;52.122;5.406;2024-01-07T13:10:45;1.83;;;0.38;;
71734;SDS011;59577;52.122;5.406;2024-01-07T13:13:12;0.90;;;0.40;;
71734;SDS011;59577;52.122;5.406;2024-01-07T13:15:41;2.80;;;0.50;;
71734;SDS011;59577;52.122;5.406;2024-01-07T13:18:09;1.27;;;0.30;;
71734;SDS011;59577;52.122;5.406;2024-01-07T13:20:38;2.10;;;0.40;;
71734;SDS011;59577;52.122;5.406;2024-01-07T13:23:07;2.70;;;0.40;;
71734;SDS011;59577;52.122;5.406;2024-01-07T13:25:34;1.95;;;0.30;;
71734;SDS011;59577;52.122;5.406;2024-01-07T13:28:00;0.63;;;0.30;;
71734;SDS011;59577;52.122;5.406;2024-01-07T13:30:27;1.40;;;0.60;;
71734;SDS011;59577;52.122;5.406;2024-01-07T13:32:54;1.20;;;0.40;;
71734;SDS011;59577;52.122;5.406;2024-01-07T13:35:24;1.83;;;0.73;;
71734;SDS011;59577;52.122;5.406;2024-01-07T13:37:51;1.13;;;0.50;;
71734;SDS011;59577;52.122;5.406;2024-01-07T13:40:18;1.02;;;0.40;;
71734;SDS011;59577;52.122;5.406;2024-01-07T13:42:45;1.13;;;0.40;;
71734;SDS011;59577;52.122;5.406;2024-01-07T13:45:12;3.47;;;0.38;;
71734;SDS011;59577;52.122;5.406;2024-01-07T13:47:40;4.95;;;0.50;;
71734;SDS011;59577;52.122;5.406;2024-01-07T13:50:07;1.30;;;0.52;;
71734;SDS011;59577;52.122;5.406;2024-01-07T13:52:36;0.77;;;0.30;;
71734;SDS011;59577;52.122;5.406;2024-01-07T13:55:02;1.30;;;0.30;;
71734;SDS011;59577;52.122;5.406;2024-01-07T13:57:29;1.08;;;0.30;;
71734;SDS011;59577;52.122;5.406;2024-01-07T13:59:57;2.20;;;0.52;;
71734;SDS011;59577;52.122;5.406;2024-01-07T14:02:23;1.20;;;0.35;;
71734;SDS011;59577;52.122;5.406;2024-01-07T14:04:50;2.55;;;0.50;;
71734;SDS011;59577;52.122;5.406;2024-01-07T14:07:20;1.00;;;0.40;;
71734;SDS011;59577;52.122;5.406;2024-01-07T14:09:47;1.00;;;0.30;;
71734;SDS011;59577;52.122;5.406;2024-01-07T14:12:14;0.50;;;0.20;;
71734;SDS011;59577;52.122;5.406;2024-01-07T14:14:40;0.40;;;0.30;;
71734;SDS011;59577;52.122;5.406;2024-01-07T14:17:07;0.82;;;0.35;;
71734;SDS011;59577;52.122;5.406;2024-01-07T14:19:33;2.63;;;0.43;;
71734;SDS011;59577;52.122;5.406;2024-01-07T14:22:00;2.45;;;0.93;;
71734;SDS011;59577;52.122;5.406;2024-01-07T14:24:27;0.88;;;0.35;;
71734;SDS011;59577;52.122;5.406;2024-01-07T14:26:53;2.33;;;0.50;;
71734;SDS011;59577;52.122;5.406;2024-01-07T14:29:24;1.00;;;0.40;;
71734;SDS011;59577;52.122;5.406;2024-01-07T14:31:50;1.50;;;0.63;;
71734;SDS011;59577;52.122;5.406;2024-01-07T14:34:17;0.88;;;0.45;;
71734;SDS011;59577;52.122;5.406;2024-01-07T14:36:44;2.05;;;0.45;;
71734;SDS011;59577;52.122;5.406;2024-01-07T14:39:11;1.75;;;0.32;;
71734;SDS011;59577;52.122;5.406;2024-01-07T14:41:40;0.95;;;0.40;;
71734;SDS011;59577;52.122;5.406;2024-01-07T14:44:07;1.70;;;0.53;;
71734;SDS011;59577;52.122;5.406;2024-01-07T14:46:38;6.18;;;0.68;;
71734;SDS011;59577;52.122;5.406;2024-01-07T14:49:04;0.95;;;0.40;;
71734;SDS011;59577;52.122;5.406;2024-01-07T14:51:31;1.52;;;0.70;;
71734;SDS011;59577;52.122;5.406;2024-01-07T14:53:58;2.28;;;0.50;;